This is the latest recevied weather packets stored in our database for station/object DB2AG-13. If no packets are shown the sender has not sent any weather packets the latest 10 day(s).
| Time | Temp. | Humidity | Pressure | Rain* | Wind** | Luminosity | Snow |
|---|---|---|---|---|---|---|---|
| 1787911103 | 30.56° C | 35% | 1009.8 hPa | - | - | - | - |
| 1787910564 | 31.11° C | 36% | 1009.7 hPa | - | - | - | - |
| 1787910026 | 30.56° C | 37% | 1009.6 hPa | - | - | - | - |
| 1787909492 | 30.56° C | 37% | 1009.5 hPa | - | - | - | - |
| 1787908957 | 29.44° C | 39% | 1009.6 hPa | - | - | - | - |
| 1787908413 | 30° C | 40% | 1009.9 hPa | - | - | - | - |
| 1787907872 | 28.89° C | 41% | 1009.8 hPa | - | - | - | - |
| 1787906795 | 26.11° C | 45% | 1010 hPa | - | - | - | - |
| 1787906258 | 26.11° C | 45% | 1009.9 hPa | - | - | - | - |
| 1787905715 | 26.11° C | 45% | 1010 hPa | - | - | - | - |
| 1787905170 | 26.67° C | 45% | 1009.8 hPa | - | - | - | - |
| 1787904632 | 26.67° C | 45% | 1009.7 hPa | - | - | - | - |
| 1787904098 | 27.22° C | 44% | 1010 hPa | - | - | - | - |
| 1787903562 | 27.22° C | 45% | 1010 hPa | - | - | - | - |
| 1787903024 | 27.22° C | 47% | 1010.3 hPa | - | - | - | - |
| 1787901952 | 26.11° C | 48% | 1010 hPa | - | - | - | - |
| 1787901419 | 25.56° C | 48% | 1009.6 hPa | - | - | - | - |
| 1787900881 | 25.56° C | 47% | 1009.7 hPa | - | - | - | - |
| 1787900335 | 25.56° C | 48% | 1009.8 hPa | - | - | - | - |
| 1787899795 | 24.44° C | 53% | 1009.7 hPa | - | - | - | - |
| 1787899260 | 23.33° C | 55% | 1009.6 hPa | - | - | - | - |
| 1787898729 | 22.78° C | 56% | 1009.6 hPa | - | - | - | - |
| 1787898194 | 22.78° C | 55% | 1009.5 hPa | - | - | - | - |
| 1787897659 | 22.22° C | 57% | 1009.7 hPa | - | - | - | - |
| 1787897125 | 22.22° C | 58% | 1009.6 hPa | - | - | - | - |
* Rain since midnight (hover to see other rain measurements)
** Current wind speed in m/s (hover to see current wind gust speed)